Time;durP1;ratioP1;P1;durP2;ratioP2;P2;SDS_P1;SDS_P2;PMS_P1;PMS_P2;Temp;Humidity;BMP_temperature;BMP_pressure;BME280_temperature;BME280_humidity;BME280_pressure;Samples;Min_cycle;Max_cycle;Signal;HPM_P1;HPM_P2
2022/02/28 00:01:06;;;;;;;;;;;18.90;58.70;;;;;;5032835;28;1029;-67
2022/02/28 00:03:31;;;;;;;;;;;18.90;58.70;;;;;;5032800;28;1303;-67
2022/02/28 00:05:57;;;;;;;;;;;18.90;58.70;;;;;;5033040;28;838;-68
2022/02/28 00:08:22;;;;;;;;;;;18.90;58.70;;;;;;5033017;28;1017;-68
2022/02/28 00:10:48;;;;;;;;;;;18.90;58.70;;;;;;5032850;28;938;-67
2022/02/28 00:13:13;;;;;;;;;;;18.90;58.80;;;;;;5031811;28;1165;-67
2022/02/28 00:15:39;;;;;;;;;;;18.90;58.80;;;;;;5033218;28;886;-68
2022/02/28 00:18:04;;;;;;;;;;;18.90;58.80;;;;;;5031650;28;1882;-67
2022/02/28 00:20:29;;;;;;;;;;;18.90;58.80;;;;;;5032773;28;1002;-68
2022/02/28 00:22:55;;;;;;;;;;;18.90;58.80;;;;;;5017778;28;1437;-68
2022/02/28 00:25:20;;;;;;;;;;;18.90;58.80;;;;;;5017244;28;1304;-68
2022/02/28 00:27:46;;;;;;;;;;;18.90;58.80;;;;;;5017408;28;839;-67
2022/02/28 00:30:11;;;;;;;;;;;18.90;58.80;;;;;;5051570;28;1226;-67
2022/02/28 00:32:37;;;;;;;;;;;18.90;58.80;;;;;;5056955;28;1017;-67
2022/02/28 00:35:03;;;;;;;;;;;18.90;58.80;;;;;;5046675;28;1549;-68
2022/02/28 00:37:28;;;;;;;;;;;18.90;58.80;;;;;;5035468;28;1902;-68
2022/02/28 00:39:53;;;;;;;;;;;18.90;58.90;;;;;;5035152;28;1000;-68
2022/02/28 00:42:19;;;;;;;;;;;18.90;58.90;;;;;;5036842;28;796;-68
2022/02/28 00:44:44;;;;;;;;;;;18.80;58.80;;;;;;5035468;28;1221;-68
2022/02/28 00:47:10;;;;;;;;;;;18.80;58.90;;;;;;5035336;28;833;-68
2022/02/28 00:49:35;;;;;;;;;;;18.90;58.90;;;;;;5036457;28;800;-68
2022/02/28 00:52:01;;;;;;;;;;;18.80;58.90;;;;;;5035352;28;892;-68
2022/02/28 00:54:27;;;;;;;;;;;18.80;58.90;;;;;;5036416;28;1580;-68
2022/02/28 00:56:53;;;;;;;;;;;18.80;58.90;;;;;;5036686;28;890;-68
2022/02/28 00:59:19;;;;;;;;;;;18.80;58.90;;;;;;5036159;28;1961;-68
2022/02/28 01:01:44;;;;;;;;;;;18.80;58.90;;;;;;5036214;28;938;-68
2022/02/28 01:04:09;;;;;;;;;;;18.80;58.90;;;;;;5036246;28;1287;-68
2022/02/28 01:06:35;;;;;;;;;;;18.80;58.90;;;;;;5036334;28;816;-68
2022/02/28 01:09:00;;;;;;;;;;;18.80;58.90;;;;;;5036269;28;751;-68
2022/02/28 01:11:26;;;;;;;;;;;18.80;59.00;;;;;;5036246;28;1195;-68
2022/02/28 01:13:51;;;;;;;;;;;18.80;59.00;;;;;;5035650;28;1125;-68
2022/02/28 01:16:17;;;;;;;;;;;18.80;59.00;;;;;;5035094;28;828;-68
2022/02/28 01:18:42;;;;;;;;;;;18.80;59.00;;;;;;5034595;28;1956;-67
2022/02/28 01:21:07;;;;;;;;;;;18.80;59.00;;;;;;5033732;28;1166;-68
2022/02/28 01:23:33;;;;;;;;;;;18.80;59.00;;;;;;5016280;28;1216;-68
2022/02/28 01:25:58;;;;;;;;;;;18.80;59.00;;;;;;5016200;28;717;-67
2022/02/28 01:28:24;;;;;;;;;;;18.80;59.00;;;;;;5021486;28;1543;-69
2022/02/28 01:30:49;;;;;;;;;;;18.80;59.00;;;;;;5055593;28;793;-68
2022/02/28 01:33:15;;;;;;;;;;;18.80;59.00;;;;;;5054161;28;1215;-68
2022/02/28 01:35:40;;;;;;;;;;;18.80;59.60;;;;;;5040585;28;1216;-69
2022/02/28 01:38:06;;;;;;;;;;;18.80;59.10;;;;;;5034276;28;1906;-68
2022/02/28 01:40:31;;;;;;;;;;;18.80;59.10;;;;;;5035516;28;832;-67
2022/02/28 01:42:56;;;;;;;;;;;18.80;59.10;;;;;;5036008;28;844;-69
2022/02/28 01:45:22;;;;;;;;;;;18.80;59.10;;;;;;5035226;28;1249;-68
2022/02/28 01:47:48;;;;;;;;;;;18.80;59.10;;;;;;5033875;28;886;-68
2022/02/28 01:50:14;;;;;;;;;;;18.80;59.10;;;;;;5035214;28;890;-68
2022/02/28 01:52:40;;;;;;;;;;;18.70;59.10;;;;;;5035482;28;846;-67
2022/02/28 01:55:05;;;;;;;;;;;18.70;59.10;;;;;;5035406;28;1175;-68
2022/02/28 01:57:31;;;;;;;;;;;18.70;59.10;;;;;;5034172;28;1901;-67
2022/02/28 01:59:56;;;;;;;;;;;18.70;59.10;;;;;;5034922;28;899;-68
2022/02/28 02:02:22;;;;;;;;;;;18.80;59.10;;;;;;5034110;28;1041;-67
2022/02/28 02:04:49;;;;;;;;;;;18.70;59.10;;;;;;5035221;28;1184;-67
2022/02/28 02:07:15;;;;;;;;;;;18.70;59.10;;;;;;5035137;28;839;-66
2022/02/28 02:09:40;;;;;;;;;;;18.70;59.10;;;;;;5034971;28;994;-66
2022/02/28 02:12:06;;;;;;;;;;;18.70;59.10;;;;;;5035110;28;894;-66
2022/02/28 02:14:34;;;;;;;;;;;18.70;59.10;;;;;;5034935;28;1821;-66
2022/02/28 02:16:59;;;;;;;;;;;18.70;59.10;;;;;;5035031;28;799;-68
2022/02/28 02:19:25;;;;;;;;;;;18.70;59.10;;;;;;5034472;28;1920;-68
2022/02/28 02:21:50;;;;;;;;;;;18.70;59.20;;;;;;5026670;28;1558;-68
2022/02/28 02:24:16;;;;;;;;;;;18.70;59.20;;;;;;5014971;28;1207;-68
2022/02/28 02:26:41;;;;;;;;;;;18.70;59.20;;;;;;5015259;28;962;-68
2022/02/28 02:29:07;;;;;;;;;;;18.70;59.20;;;;;;5031690;28;1506;-68
2022/02/28 02:31:32;;;;;;;;;;;18.70;59.20;;;;;;5054692;28;791;-69
2022/02/28 02:33:57;;;;;;;;;;;18.70;59.20;;;;;;5053314;28;1281;-68
2022/02/28 02:36:23;;;;;;;;;;;18.70;59.20;;;;;;5034513;28;907;-67
2022/02/28 02:38:51;;;;;;;;;;;18.70;59.20;;;;;;5034221;28;1915;-67
2022/02/28 02:41:16;;;;;;;;;;;18.70;59.10;;;;;;5034608;28;930;-68
2022/02/28 02:43:42;;;;;;;;;;;18.70;59.10;;;;;;5034181;28;1216;-68
2022/02/28 02:46:07;;;;;;;;;;;18.70;59.00;;;;;;5033690;28;1018;-69
2022/02/28 02:48:32;;;;;;;;;;;18.80;59.00;;;;;;5034133;28;919;-69
2022/02/28 02:50:58;;;;;;;;;;;18.80;59.00;;;;;;5034288;28;994;-69
2022/02/28 02:53:23;;;;;;;;;;;18.80;58.90;;;;;;5034232;28;1232;-69
2022/02/28 02:55:49;;;;;;;;;;;18.80;58.80;;;;;;5033144;28;788;-69
2022/02/28 02:58:14;;;;;;;;;;;18.80;58.70;;;;;;5033982;28;1927;-69
2022/02/28 03:00:47;;;;;;;;;;;18.90;58.70;;;;;;5034111;28;1076;-69
2022/02/28 03:03:14;;;;;;;;;;;18.90;58.60;;;;;;5016368;28;1307;-68
2022/02/28 03:05:40;;;;;;;;;;;18.90;58.60;;;;;;5033980;28;1002;-68
2022/02/28 03:08:05;;;;;;;;;;;18.90;58.50;;;;;;5034059;28;880;-68
2022/02/28 03:10:31;;;;;;;;;;;18.90;58.40;;;;;;5032453;28;801;-69
2022/02/28 03:12:56;;;;;;;;;;;19.00;58.40;;;;;;5033730;28;1185;-69
2022/02/28 03:15:21;;;;;;;;;;;19.00;58.40;;;;;;5033802;28;1224;-69
2022/02/28 03:17:47;;;;;;;;;;;19.00;58.30;;;;;;5032592;28;1906;-69
2022/02/28 03:20:12;;;;;;;;;;;19.00;58.30;;;;;;5033408;28;778;-69
2022/02/28 03:22:38;;;;;;;;;;;19.00;58.30;;;;;;5032476;28;1277;-69
2022/02/28 03:25:03;;;;;;;;;;;19.00;58.20;;;;;;5033648;28;1267;-69
2022/02/28 03:27:29;;;;;;;;;;;19.00;58.20;;;;;;5032295;28;1009;-69
2022/02/28 03:29:54;;;;;;;;;;;19.00;58.20;;;;;;5030563;28;1244;-69
2022/02/28 03:32:20;;;;;;;;;;;19.10;58.20;;;;;;5053493;28;697;-69
2022/02/28 03:34:45;;;;;;;;;;;19.10;58.20;;;;;;5052064;22;3918;-68
2022/02/28 03:37:11;;;;;;;;;;;19.10;58.70;;;;;;5033199;28;708;-69
2022/02/28 03:39:36;;;;;;;;;;;19.10;58.10;;;;;;5015775;28;1926;-68
2022/02/28 03:42:02;;;;;;;;;;;19.10;58.10;;;;;;5033782;28;696;-68
2022/02/28 03:44:27;;;;;;;;;;;19.00;58.00;;;;;;5016058;28;1285;-69
2022/02/28 03:46:52;;;;;;;;;;;19.10;58.10;;;;;;5034236;28;795;-69
2022/02/28 03:49:18;;;;;;;;;;;19.10;58.10;;;;;;5015803;28;879;-68
2022/02/28 03:51:44;;;;;;;;;;;19.10;58.10;;;;;;5033543;28;1010;-68
2022/02/28 03:54:12;;;;;;;;;;;19.10;58.10;;;;;;5033689;28;1200;-68
2022/02/28 03:56:38;;;;;;;;;;;19.10;58.10;;;;;;5032954;28;867;-68
2022/02/28 03:59:04;;;;;;;;;;;19.10;58.00;;;;;;5033113;28;1906;-69
2022/02/28 04:01:29;;;;;;;;;;;19.10;58.00;;;;;;5016118;28;930;-68
2022/02/28 04:03:54;;;;;;;;;;;19.10;58.00;;;;;;5015794;28;1226;-68
2022/02/28 04:06:20;;;;;;;;;;;19.10;58.00;;;;;;5033409;28;772;-69
2022/02/28 04:08:46;;;;;;;;;;;19.10;58.00;;;;;;5015334;28;820;-68
2022/02/28 04:11:12;;;;;;;;;;;19.10;58.00;;;;;;5033188;28;831;-69
2022/02/28 04:13:37;;;;;;;;;;;19.10;58.00;;;;;;5015727;28;1215;-68
2022/02/28 04:16:03;;;;;;;;;;;19.10;58.60;;;;;;5033344;28;800;-69
2022/02/28 04:18:29;;;;;;;;;;;19.10;58.00;;;;;;5015409;28;1906;-68
2022/02/28 04:20:55;;;;;;;;;;;19.10;58.00;;;;;;5015682;28;1131;-68
2022/02/28 04:23:20;;;;;;;;;;;19.10;58.00;;;;;;5033325;28;1314;-68
2022/02/28 04:25:45;;;;;;;;;;;19.10;58.00;;;;;;5033709;28;749;-69
2022/02/28 04:28:11;;;;;;;;;;;19.10;58.00;;;;;;5034688;28;1135;-68
2022/02/28 04:30:36;;;;;;;;;;;19.10;58.00;;;;;;5053100;28;768;-68
2022/02/28 04:33:02;;;;;;;;;;;19.10;58.00;;;;;;5053079;28;856;-68
2022/02/28 04:35:27;;;;;;;;;;;19.10;58.00;;;;;;5038492;28;1267;-68
2022/02/28 04:37:52;;;;;;;;;;;19.10;58.00;;;;;;5031974;28;1906;-69
2022/02/28 04:40:18;;;;;;;;;;;19.10;58.00;;;;;;5032712;28;872;-68
2022/02/28 04:42:44;;;;;;;;;;;19.10;57.90;;;;;;5033221;28;899;-68
2022/02/28 04:45:09;;;;;;;;;;;19.10;57.90;;;;;;5032953;28;1223;-69
2022/02/28 04:47:35;;;;;;;;;;;19.10;57.90;;;;;;5031819;28;863;-68
2022/02/28 04:50:00;;;;;;;;;;;19.10;57.90;;;;;;5015172;28;1421;-69
2022/02/28 04:52:25;;;;;;;;;;;19.10;57.90;;;;;;5032028;28;947;-68
2022/02/28 04:54:51;;;;;;;;;;;19.10;57.90;;;;;;5032592;28;1210;-67
2022/02/28 04:57:16;;;;;;;;;;;19.10;57.90;;;;;;5033110;28;1013;-68
2022/02/28 04:59:43;;;;;;;;;;;19.10;57.90;;;;;;5031457;28;1894;-68
2022/02/28 05:02:08;;;;;;;;;;;19.10;57.90;;;;;;5033033;28;860;-67
2022/02/28 05:04:33;;;;;;;;;;;19.10;57.90;;;;;;5015312;28;1328;-68
2022/02/28 05:06:59;;;;;;;;;;;19.10;57.90;;;;;;5033008;28;831;-68
2022/02/28 05:09:24;;;;;;;;;;;19.10;57.90;;;;;;5035032;28;800;-67
2022/02/28 05:11:50;;;;;;;;;;;19.10;57.90;;;;;;5035540;28;792;-68
2022/02/28 05:14:15;;;;;;;;;;;19.10;57.90;;;;;;5036713;28;1315;-67
2022/02/28 05:16:41;;;;;;;;;;;19.10;57.90;;;;;;5036365;28;800;-67
2022/02/28 05:19:07;;;;;;;;;;;19.10;57.90;;;;;;5036104;28;1964;-68
2022/02/28 05:21:32;;;;;;;;;;;19.10;57.90;;;;;;5036293;28;1146;-68
2022/02/28 05:23:57;;;;;;;;;;;19.10;57.90;;;;;;5036184;28;1206;-68
2022/02/28 05:26:23;;;;;;;;;;;19.10;57.90;;;;;;5036197;28;1068;-68
2022/02/28 05:28:48;;;;;;;;;;;19.10;57.80;;;;;;5042008;28;1127;-67
2022/02/28 05:31:14;;;;;;;;;;;19.10;57.90;;;;;;5056249;28;1020;-68
2022/02/28 05:33:39;;;;;;;;;;;19.10;57.90;;;;;;5056329;28;1235;-68
2022/02/28 05:36:05;;;;;;;;;;;19.10;57.80;;;;;;5036400;28;1249;-68
2022/02/28 05:38:30;;;;;;;;;;;19.10;57.80;;;;;;5035600;28;1902;-68
2022/02/28 05:40:56;;;;;;;;;;;19.10;58.40;;;;;;5036237;28;839;-68
2022/02/28 05:43:22;;;;;;;;;;;19.10;57.80;;;;;;5036031;28;1196;-67
2022/02/28 05:45:47;;;;;;;;;;;19.10;57.80;;;;;;5035935;28;1014;-68
2022/02/28 05:48:13;;;;;;;;;;;19.10;57.80;;;;;;5035864;28;704;-68
2022/02/28 05:50:38;;;;;;;;;;;19.10;57.80;;;;;;5035369;28;796;-68
2022/02/28 05:53:03;;;;;;;;;;;19.10;57.80;;;;;;5035773;28;926;-68
2022/02/28 05:55:29;;;;;;;;;;;19.10;57.80;;;;;;5017902;28;1705;-68
2022/02/28 05:57:54;;;;;;;;;;;19.10;57.80;;;;;;5034504;28;1957;-67
2022/02/28 06:00:20;;;;;;;;;;;19.10;57.80;;;;;;5035507;28;1033;-68
2022/02/28 06:02:47;;;;;;;;;;;19.10;57.80;;;;;;5035739;28;910;-68
2022/02/28 06:05:12;;;;;;;;;;;19.10;57.80;;;;;;5035529;28;1189;-67
2022/02/28 06:07:38;;;;;;;;;;;19.10;57.80;;;;;;5035326;28;887;-67
2022/02/28 06:10:03;;;;;;;;;;;19.10;57.80;;;;;;5035036;28;938;-68
2022/02/28 06:12:29;;;;;;;;;;;19.10;57.80;;;;;;5035577;28;819;-68
2022/02/28 06:14:54;;;;;;;;;;;19.10;57.80;;;;;;5035205;28;1243;-68
2022/02/28 06:17:20;;;;;;;;;;;19.10;57.80;;;;;;5035344;28;762;-67
2022/02/28 06:19:46;;;;;;;;;;;19.10;57.80;;;;;;5034031;28;1894;-68
2022/02/28 06:22:12;;;;;;;;;;;19.10;57.80;;;;;;5035709;28;1170;-69
2022/02/28 06:24:38;;;;;;;;;;;19.10;57.80;;;;;;5034894;28;1226;-68
2022/02/28 06:27:03;;;;;;;;;;;19.10;57.80;;;;;;5001624;28;1870;-69
2022/02/28 06:29:29;;;;;;;;;;;19.10;57.80;;;;;;5015034;28;1101;-69
2022/02/28 06:31:55;;;;;;;;;;;19.10;57.80;;;;;;5033659;28;952;-69
2022/02/28 06:34:20;;;;;;;;;;;19.10;58.40;;;;;;5033555;28;1232;-69
2022/02/28 06:36:46;;;;;;;;;;;19.10;57.80;;;;;;5033849;28;947;-69
2022/02/28 06:39:11;;;;;;;;;;;19.10;57.80;;;;;;5015499;28;1965;-69
2022/02/28 06:41:37;;;;;;;;;;;19.10;57.80;;;;;;5033429;28;839;-68
2022/02/28 06:44:02;;;;;;;;;;;19.10;57.80;;;;;;5015644;28;1200;-70
2022/02/28 06:46:28;;;;;;;;;;;19.10;57.80;;;;;;5017471;28;867;-68
2022/02/28 06:48:53;;;;;;;;;;;19.10;57.80;;;;;;5038673;28;886;-68
2022/02/28 06:51:18;;;;;;;;;;;19.10;57.80;;;;;;5004048;28;1014;-68
2022/02/28 06:53:44;;;;;;;;;;;19.10;57.80;;;;;;5021186;28;1276;-68
2022/02/28 06:56:09;;;;;;;;;;;19.10;57.80;;;;;;5033675;28;915;-67
2022/02/28 06:58:35;;;;;;;;;;;19.10;57.80;;;;;;5035085;28;1932;-69
2022/02/28 07:01:00;;;;;;;;;;;19.10;57.80;;;;;;5034543;28;820;-69
2022/02/28 07:03:26;;;;;;;;;;;19.10;57.80;;;;;;5016788;28;1300;-67
2022/02/28 07:05:52;;;;;;;;;;;19.10;57.80;;;;;;5030342;28;1516;-68
2022/02/28 07:08:20;;;;;;;;;;;19.10;57.80;;;;;;5033335;28;1208;-67
2022/02/28 07:10:46;;;;;;;;;;;19.10;57.80;;;;;;4996452;28;1224;-68
2022/02/28 07:13:11;;;;;;;;;;;19.10;57.80;;;;;;5013273;28;1006;-68
2022/02/28 07:15:38;;;;;;;;;;;19.10;57.80;;;;;;5011664;28;1220;-71
2022/02/28 07:18:04;;;;;;;;;;;19.10;57.80;;;;;;4998205;28;2269;-67
2022/02/28 07:20:29;;;;;;;;;;;19.10;57.70;;;;;;5031797;28;1310;-66
2022/02/28 07:22:55;;;;;;;;;;;19.10;57.80;;;;;;5029149;28;1190;-67
2022/02/28 07:25:20;;;;;;;;;;;19.10;58.30;;;;;;5032571;28;1283;-68
2022/02/28 07:27:45;;;;;;;;;;;19.10;57.80;;;;;;5034510;28;673;-68
2022/02/28 07:30:11;;;;;;;;;;;19.10;57.80;;;;;;5051784;28;1207;-67
2022/02/28 07:32:36;;;;;;;;;;;19.10;57.70;;;;;;5053217;28;887;-68
2022/02/28 07:35:02;;;;;;;;;;;19.10;57.80;;;;;;5044162;28;1195;-68
2022/02/28 07:37:27;;;;;;;;;;;19.10;57.80;;;;;;5016014;28;1013;-68
2022/02/28 07:39:53;;;;;;;;;;;19.10;57.70;;;;;;5034284;28;1968;-67
2022/02/28 07:42:19;;;;;;;;;;;19.10;57.70;;;;;;5034176;28;883;-68
2022/02/28 07:44:45;;;;;;;;;;;19.20;57.80;;;;;;4999975;28;1345;-68
2022/02/28 07:47:10;;;;;;;;;;;19.20;57.80;;;;;;5034997;28;950;-68
2022/02/28 07:49:38;;;;;;;;;;;19.10;57.70;;;;;;5016381;28;827;-67
2022/02/28 07:52:03;;;;;;;;;;;19.10;57.70;;;;;;5033685;28;886;-67
2022/02/28 07:54:29;;;;;;;;;;;19.10;57.70;;;;;;5033220;28;1148;-67
2022/02/28 07:56:54;;;;;;;;;;;19.10;57.70;;;;;;5033188;28;1104;-68
2022/02/28 07:59:20;;;;;;;;;;;19.20;57.80;;;;;;5015353;28;1926;-68
2022/02/28 08:01:45;;;;;;;;;;;19.20;57.70;;;;;;5033114;28;923;-68
2022/02/28 08:04:10;;;;;;;;;;;19.20;57.70;;;;;;5015424;28;1335;-69
2022/02/28 08:06:37;;;;;;;;;;;19.20;57.70;;;;;;5033096;28;895;-68
2022/02/28 08:09:03;;;;;;;;;;;19.20;57.70;;;;;;5032970;28;918;-68
2022/02/28 08:11:28;;;;;;;;;;;19.20;57.70;;;;;;5033397;28;955;-68
2022/02/28 08:13:53;;;;;;;;;;;19.20;57.80;;;;;;5033617;28;1323;-68
2022/02/28 08:16:19;;;;;;;;;;;19.20;57.80;;;;;;5033390;28;851;-68
2022/02/28 08:18:45;;;;;;;;;;;19.20;57.70;;;;;;5032323;28;2197;-68
2022/02/28 08:21:10;;;;;;;;;;;19.20;57.70;;;;;;5032744;28;1273;-67
2022/02/28 08:23:35;;;;;;;;;;;19.30;57.70;;;;;;5031508;28;1382;-67
2022/02/28 08:26:01;;;;;;;;;;;19.40;57.50;;;;;;5032754;28;1087;-68
2022/02/28 08:28:26;;;;;;;;;;;19.50;57.40;;;;;;5031380;28;1250;-70
2022/02/28 08:30:52;;;;;;;;;;;19.70;57.20;;;;;;5032680;28;867;-67
2022/02/28 08:33:17;;;;;;;;;;;19.80;57.00;;;;;;5032944;28;934;-67
2022/02/28 08:35:43;;;;;;;;;;;19.90;56.70;;;;;;4999568;28;1287;-67
2022/02/28 08:38:08;;;;;;;;;;;20.00;56.40;;;;;;5013136;28;1957;-67
2022/02/28 08:40:34;;;;;;;;;;;20.20;56.10;;;;;;5012987;28;859;-67
2022/02/28 08:42:59;;;;;;;;;;;20.30;55.90;;;;;;4996004;28;899;-68
2022/02/28 08:45:25;;;;;;;;;;;20.40;55.50;;;;;;5016905;28;1277;-67
2022/02/28 08:47:50;;;;;;;;;;;20.50;55.30;;;;;;5017249;28;1054;-68
2022/02/28 08:50:16;;;;;;;;;;;20.60;55.60;;;;;;5016473;28;820;-69
2022/02/28 08:52:44;;;;;;;;;;;20.70;54.80;;;;;;5016774;28;890;-67
2022/02/28 08:55:10;;;;;;;;;;;20.80;54.60;;;;;;5016741;28;1174;-68
2022/02/28 08:57:36;;;;;;;;;;;20.80;54.40;;;;;;5016692;28;1081;-67
2022/02/28 09:00:02;;;;;;;;;;;20.90;54.30;;;;;;4998818;28;1895;-68
2022/02/28 09:02:28;;;;;;;;;;;20.90;54.20;;;;;;5016628;28;1015;-69
2022/02/28 09:04:53;;;;;;;;;;;21.00;54.20;;;;;;5016270;28;1187;-67
2022/02/28 09:07:19;;;;;;;;;;;21.00;54.10;;;;;;4998969;28;804;-68
2022/02/28 09:09:45;;;;;;;;;;;21.00;54.10;;;;;;5016065;28;810;-69
2022/02/28 09:12:12;;;;;;;;;;;21.00;54.10;;;;;;5016297;28;1129;-68
2022/02/28 09:14:38;;;;;;;;;;;21.00;54.10;;;;;;5016261;28;1314;-67
2022/02/28 09:17:04;;;;;;;;;;;21.00;54.20;;;;;;5016484;28;811;-68
2022/02/28 09:19:29;;;;;;;;;;;21.00;54.20;;;;;;4998308;28;1966;-69
2022/02/28 09:21:55;;;;;;;;;;;21.00;54.30;;;;;;5025055;28;1155;-69
2022/02/28 09:24:21;;;;;;;;;;;21.00;54.30;;;;;;5035983;28;1195;-68
2022/02/28 09:26:46;;;;;;;;;;;21.00;54.20;;;;;;5035908;28;879;-68
2022/02/28 09:29:12;;;;;;;;;;;21.00;54.20;;;;;;5044861;28;1139;-68
2022/02/28 09:31:38;;;;;;;;;;;21.00;54.20;;;;;;5055737;28;803;-68
2022/02/28 09:34:03;;;;;;;;;;;21.00;54.20;;;;;;5075294;22;2024;-68
2022/02/28 09:36:29;;;;;;;;;;;20.90;54.20;;;;;;5054073;28;1194;-68
2022/02/28 09:38:54;;;;;;;;;;;20.90;54.20;;;;;;5053996;28;1964;-68
2022/02/28 09:41:20;;;;;;;;;;;20.90;54.30;;;;;;5055572;28;882;-68
2022/02/28 09:43:45;;;;;;;;;;;20.90;54.30;;;;;;5053597;28;1205;-68
2022/02/28 09:46:10;;;;;;;;;;;20.90;54.40;;;;;;5035663;28;768;-68
2022/02/28 09:48:36;;;;;;;;;;;20.80;54.40;;;;;;5033949;28;1049;-68
2022/02/28 09:51:01;;;;;;;;;;;20.80;54.50;;;;;;5034141;28;957;-68
2022/02/28 09:53:27;;;;;;;;;;;20.80;54.60;;;;;;5035415;28;872;-68
2022/02/28 09:55:52;;;;;;;;;;;20.80;54.60;;;;;;5035380;28;1262;-67
2022/02/28 09:58:27;;;;;;;;;;;20.80;54.70;;;;;;5017612;28;1894;-68
2022/02/28 10:00:53;;;;;;;;;;;20.80;54.70;;;;;;5034037;28;1103;-68
2022/02/28 10:03:19;;;;;;;;;;;20.80;54.80;;;;;;5035060;28;815;-68
2022/02/28 10:05:44;;;;;;;;;;;20.70;54.80;;;;;;5035191;28;1287;-68
2022/02/28 10:08:13;;;;;;;;;;;20.70;54.90;;;;;;5034988;28;937;-68
2022/02/28 10:10:38;;;;;;;;;;;20.70;54.90;;;;;;5034812;28;811;-68
2022/02/28 10:13:04;;;;;;;;;;;20.70;54.90;;;;;;5035047;28;1230;-69
2022/02/28 10:15:29;;;;;;;;;;;20.70;55.00;;;;;;5034873;28;1302;-68
2022/02/28 10:17:58;;;;;;;;;;;20.60;55.00;;;;;;5034750;28;1974;-69
2022/02/28 10:20:24;;;;;;;;;;;20.60;55.10;;;;;;5033435;28;853;-69
2022/02/28 10:22:50;;;;;;;;;;;20.60;55.10;;;;;;5033680;28;1183;-69
2022/02/28 10:25:26;;;;;;;;;;;20.60;55.20;;;;;;5034802;28;1280;-68
2022/02/28 10:28:11;;;;;;;;;;;20.60;55.20;;;;;;5017059;28;1228;-68
2022/02/28 10:30:37;;;;;;;;;;;20.60;55.30;;;;;;5013422;28;880;-69
2022/02/28 10:33:07;;;;;;;;;;;20.50;55.30;;;;;;5013809;28;1072;-69
2022/02/28 10:38:20;;;;;;;;;;;20.50;55.40;;;;;;5034596;28;1910;-69
2022/02/28 10:40:45;;;;;;;;;;;20.50;55.40;;;;;;5034105;28;927;-69
2022/02/28 10:43:20;;;;;;;;;;;20.50;55.50;;;;;;5034561;28;883;-68
2022/02/28 10:45:46;;;;;;;;;;;20.40;55.50;;;;;;5033240;28;1181;-68
2022/02/28 10:48:11;;;;;;;;;;;20.40;55.50;;;;;;5034507;28;651;-68
2022/02/28 10:50:40;;;;;;;;;;;20.40;55.60;;;;;;5033970;28;793;-68
2022/02/28 10:53:12;;;;;;;;;;;20.40;55.60;;;;;;5034304;28;1017;-68
2022/02/28 10:55:37;;;;;;;;;;;20.40;55.70;;;;;;5034173;28;1189;-68
2022/02/28 10:58:06;;;;;;;;;;;20.40;55.70;;;;;;5034173;28;1882;-68
2022/02/28 11:00:32;;;;;;;;;;;20.30;55.70;;;;;;5033910;28;866;-68
2022/02/28 11:03:03;;;;;;;;;;;20.30;55.70;;;;;;5032943;28;928;-68
2022/02/28 11:05:29;;;;;;;;;;;20.30;55.80;;;;;;5033764;28;1192;-69
2022/02/28 11:07:56;;;;;;;;;;;20.30;55.80;;;;;;5033532;28;683;-69
2022/02/28 11:10:21;;;;;;;;;;;20.30;55.90;;;;;;5033807;28;879;-69
2022/02/28 11:12:47;;;;;;;;;;;20.30;55.90;;;;;;5033965;28;990;-69
2022/02/28 11:15:13;;;;;;;;;;;20.20;55.90;;;;;;5033805;28;1196;-68
2022/02/28 11:17:39;;;;;;;;;;;20.20;55.90;;;;;;5033267;28;847;-69
2022/02/28 11:20:10;;;;;;;;;;;20.20;56.00;;;;;;5032451;28;1894;-68
2022/02/28 11:22:36;;;;;;;;;;;20.20;56.00;;;;;;5018196;28;1170;-68
2022/02/28 11:25:02;;;;;;;;;;;20.20;56.10;;;;;;5012679;28;1224;-68
2022/02/28 11:27:29;;;;;;;;;;;20.20;56.10;;;;;;5012872;28;811;-68
2022/02/28 11:30:00;;;;;;;;;;;20.20;56.10;;;;;;5043651;28;1136;-68
2022/02/28 11:32:25;;;;;;;;;;;20.20;56.10;;;;;;5053618;28;846;-68
2022/02/28 11:34:51;;;;;;;;;;;20.10;56.10;;;;;;5060244;28;1294;-68
2022/02/28 11:37:20;;;;;;;;;;;20.10;56.10;;;;;;5032292;28;771;-69
2022/02/28 11:39:46;;;;;;;;;;;20.10;56.20;;;;;;5032011;28;1910;-69
2022/02/28 11:42:12;;;;;;;;;;;20.10;56.20;;;;;;5033494;28;989;-69
2022/02/28 11:44:52;;;;;;;;;;;20.10;56.20;;;;;;5033350;28;1210;-69
2022/02/28 11:47:18;;;;;;;;;;;20.10;56.30;;;;;;5027794;28;1699;-67
2022/02/28 11:49:43;;;;;;;;;;;20.10;56.30;;;;;;5032786;28;1080;-68
2022/02/28 11:52:35;;;;;;;;;;;20.10;56.30;;;;;;5032088;28;1093;-67
2022/02/28 11:55:06;;;;;;;;;;;20.10;56.30;;;;;;5030978;28;1374;-68
2022/02/28 11:57:50;;;;;;;;;;;20.10;56.30;;;;;;5031859;28;717;-67
2022/02/28 12:00:39;;;;;;;;;;;20.10;56.30;;;;;;5032875;28;1333;-67
2022/02/28 12:03:09;;;;;;;;;;;20.10;56.20;;;;;;5027717;28;1254;-67
2022/02/28 12:05:38;;;;;;;;;;;20.20;56.10;;;;;;5033018;28;1187;-68
2022/02/28 12:08:03;;;;;;;;;;;20.20;56.10;;;;;;5033063;28;851;-67
2022/02/28 12:10:31;;;;;;;;;;;20.30;56.00;;;;;;5032487;28;1018;-68
2022/02/28 12:12:57;;;;;;;;;;;20.30;55.90;;;;;;5033139;28;878;-68
2022/02/28 12:15:23;;;;;;;;;;;20.30;55.80;;;;;;5032934;28;1215;-67
2022/02/28 12:17:48;;;;;;;;;;;20.40;55.80;;;;;;5032188;28;793;-67
2022/02/28 12:20:13;;;;;;;;;;;20.40;55.80;;;;;;5032900;28;1957;-67
2022/02/28 12:22:54;;;;;;;;;;;20.40;55.70;;;;;;5032903;28;1123;-67
2022/02/28 12:25:38;;;;;;;;;;;20.40;55.60;;;;;;5032922;28;1278;-67
2022/02/28 12:28:20;;;;;;;;;;;20.40;55.60;;;;;;5033002;28;812;-67
2022/02/28 12:30:51;;;;;;;;;;;20.50;55.60;;;;;;5012941;28;859;-67
2022/02/28 12:33:17;;;;;;;;;;;20.50;55.60;;;;;;5013085;28;831;-68
2022/02/28 12:35:56;;;;;;;;;;;20.50;55.60;;;;;;5023700;28;1318;-67
2022/02/28 12:38:22;;;;;;;;;;;20.50;55.60;;;;;;5030828;28;2220;-67
2022/02/28 12:40:52;;;;;;;;;;;20.40;55.60;;;;;;5031052;28;1194;-68
2022/02/28 12:43:18;;;;;;;;;;;20.40;55.60;;;;;;5031576;28;1214;-67
2022/02/28 12:45:47;;;;;;;;;;;20.40;55.60;;;;;;5032543;28;1201;-67
2022/02/28 12:48:13;;;;;;;;;;;20.40;55.60;;;;;;5032812;28;779;-67
2022/02/28 12:50:53;;;;;;;;;;;20.40;55.70;;;;;;5047880;28;1046;-67
2022/02/28 12:53:18;;;;;;;;;;;20.40;55.70;;;;;;5048632;28;851;-67
2022/02/28 12:55:50;;;;;;;;;;;20.40;55.80;;;;;;5032522;28;1166;-68
2022/02/28 12:58:19;;;;;;;;;;;20.30;55.80;;;;;;5047825;28;1947;-68
2022/02/28 13:00:45;;;;;;;;;;;20.30;55.80;;;;;;5032344;28;860;-68
2022/02/28 13:03:11;;;;;;;;;;;20.30;56.40;;;;;;5048127;28;1081;-68
2022/02/28 13:05:36;;;;;;;;;;;20.30;55.90;;;;;;5032469;28;1292;-67
2022/02/28 13:08:02;;;;;;;;;;;20.30;55.90;;;;;;5032458;28;954;-68
2022/02/28 13:10:28;;;;;;;;;;;20.30;56.00;;;;;;5031296;28;1770;-68
2022/02/28 13:12:53;;;;;;;;;;;20.30;56.00;;;;;;5032125;28;1047;-68
2022/02/28 13:15:18;;;;;;;;;;;20.30;56.00;;;;;;5032253;28;1268;-68
2022/02/28 13:17:47;;;;;;;;;;;20.20;56.00;;;;;;5032444;28;962;-67
2022/02/28 13:20:12;;;;;;;;;;;20.30;56.00;;;;;;5031985;28;1898;-68
2022/02/28 13:22:39;;;;;;;;;;;20.20;56.00;;;;;;5032163;28;1174;-68
2022/02/28 13:25:05;;;;;;;;;;;20.20;56.00;;;;;;5032238;28;1209;-68
2022/02/28 13:27:31;;;;;;;;;;;20.20;56.00;;;;;;5046920;28;2224;-69
2022/02/28 13:29:56;;;;;;;;;;;20.20;56.00;;;;;;5034247;28;1025;-69
2022/02/28 13:32:24;;;;;;;;;;;20.20;56.00;;;;;;5051064;28;1095;-69
2022/02/28 13:34:49;;;;;;;;;;;20.20;56.00;;;;;;5050828;28;1209;-70
2022/02/28 13:37:16;;;;;;;;;;;20.20;56.00;;;;;;5034425;28;1288;-70
2022/02/28 13:39:42;;;;;;;;;;;20.20;56.00;;;;;;5035418;28;1936;-70
2022/02/28 13:42:11;;;;;;;;;;;20.20;56.00;;;;;;5035262;28;799;-69
2022/02/28 13:44:37;;;;;;;;;;;20.20;56.00;;;;;;5035574;28;1314;-69
2022/02/28 13:47:02;;;;;;;;;;;20.20;56.00;;;;;;5034338;28;907;-69
2022/02/28 13:49:32;;;;;;;;;;;20.20;56.00;;;;;;5035533;28;906;-69
2022/02/28 13:51:58;;;;;;;;;;;20.20;56.10;;;;;;5034310;28;898;-69
2022/02/28 13:54:23;;;;;;;;;;;20.20;56.10;;;;;;5035304;28;1187;-69
2022/02/28 13:56:48;;;;;;;;;;;20.20;56.10;;;;;;5035220;28;899;-69
2022/02/28 13:59:14;;;;;;;;;;;20.20;56.10;;;;;;5035020;28;1898;-69
2022/02/28 14:01:50;;;;;;;;;;;20.20;56.10;;;;;;5035366;28;1021;-69
2022/02/28 14:04:16;;;;;;;;;;;20.20;56.10;;;;;;5035091;28;1202;-69
2022/02/28 14:06:41;;;;;;;;;;;20.20;56.20;;;;;;5033823;28;789;-70
2022/02/28 14:09:07;;;;;;;;;;;20.20;56.20;;;;;;5033427;28;798;-70
2022/02/28 14:11:32;;;;;;;;;;;20.10;56.20;;;;;;5035094;28;919;-70
2022/02/28 14:13:58;;;;;;;;;;;20.10;56.20;;;;;;5035035;28;1274;-70
2022/02/28 14:16:24;;;;;;;;;;;20.10;56.20;;;;;;5033866;28;828;-70
2022/02/28 14:19:12;;;;;;;;;;;20.20;56.30;;;;;;5034619;28;1957;-70
2022/02/28 14:21:40;;;;;;;;;;;20.10;56.20;;;;;;5034816;28;1111;-70
2022/02/28 14:24:07;;;;;;;;;;;20.10;56.30;;;;;;5034769;28;1293;-70
2022/02/28 14:26:32;;;;;;;;;;;20.10;56.30;;;;;;5033931;28;1020;-69
2022/02/28 14:28:58;;;;;;;;;;;20.10;56.30;;;;;;5040493;28;1135;-69
2022/02/28 14:31:23;;;;;;;;;;;20.10;56.90;;;;;;5054828;28;1009;-69
2022/02/28 14:33:49;;;;;;;;;;;20.10;56.40;;;;;;5054521;28;1301;-69